Time;durP1;ratioP1;P1;durP2;ratioP2;P2;SDS_P1;SDS_P2;PMS_P1;PMS_P2;Temp;Humidity;BMP_temperature;BMP_pressure;BME280_temperature;BME280_humidity;BME280_pressure;Samples;Min_cycle;Max_cycle;Signal;HPM_P1;HPM_P2
2023/01/18 00:00:09;;;;;;;4.40;3.45;;;5.00;99.90;;;;;;5035733;28;20497;-88
2023/01/18 00:02:35;;;;;;;4.35;3.28;;;5.10;99.90;;;;;;5053297;28;20481;-88
2023/01/18 00:05:01;;;;;;;4.05;3.03;;;5.00;99.90;;;;;;5035763;28;20025;-88
2023/01/18 00:07:27;;;;;;;4.50;3.35;;;5.10;99.90;;;;;;5053001;28;20495;-88
2023/01/18 00:09:52;;;;;;;5.53;4.25;;;5.20;99.90;;;;;;5053859;28;20029;-88
2023/01/18 00:12:18;;;;;;;6.60;5.15;;;5.30;99.90;;;;;;5052948;28;20029;-89
2023/01/18 00:14:44;;;;;;;7.57;5.95;;;5.30;99.90;;;;;;5053090;28;20044;-88
2023/01/18 00:17:09;;;;;;;7.60;5.90;;;5.20;99.90;;;;;;5053033;28;20033;-88
2023/01/18 00:19:35;;;;;;;7.72;5.60;;;5.20;99.90;;;;;;5053245;28;20033;-88
2023/01/18 00:22:01;;;;;;;6.85;4.63;;;5.30;99.90;;;;;;5053208;28;20052;-88
2023/01/18 00:24:27;;;;;;;7.90;5.68;;;5.20;99.90;;;;;;5053141;28;20059;-88
2023/01/18 00:26:53;;;;;;;6.55;4.45;;;5.20;99.90;;;;;;5052947;28;20037;-88
2023/01/18 00:29:19;;;;;;;5.63;4.05;;;5.10;99.90;;;;;;5052837;28;20108;-88
2023/01/18 00:31:45;;;;;;;6.35;4.20;;;5.20;99.90;;;;;;5053200;28;20515;-88
2023/01/18 00:34:11;;;;;;;6.13;4.55;;;5.20;99.90;;;;;;5053675;28;20063;-88
2023/01/18 00:36:36;;;;;;;5.93;4.18;;;5.20;99.90;;;;;;5053496;28;20021;-88
2023/01/18 00:39:03;;;;;;;6.75;4.38;;;5.30;99.90;;;;;;5052055;28;20033;-88
2023/01/18 00:41:28;;;;;;;7.50;4.65;;;5.20;99.90;;;;;;5052400;28;20508;-88
2023/01/18 00:43:55;;;;;;;5.03;3.50;;;5.20;99.90;;;;;;5053090;28;20056;-88
2023/01/18 00:46:23;;;;;;;5.57;3.90;;;5.20;99.90;;;;;;5053591;28;20107;-88
2023/01/18 00:48:51;;;;;;;5.63;3.97;;;5.30;99.90;;;;;;5052132;28;20032;-88
2023/01/18 00:51:24;;;;;;;5.55;3.80;;;5.40;99.90;;;;;;5053359;28;20029;-88
2023/01/18 00:53:50;;;;;;;7.28;4.75;;;5.20;99.90;;;;;;5053374;28;20036;-88
2023/01/18 00:56:18;;;;;;;6.38;3.70;;;5.10;99.90;;;;;;5035643;28;20128;-88
2023/01/18 00:58:45;;;;;;;5.65;3.60;;;5.50;99.90;;;;;;5053467;28;20037;-88
2023/01/18 01:01:11;;;;;;;5.70;4.03;;;5.40;99.90;;;;;;5053332;28;20074;-88
2023/01/18 01:06:43;;;;;;;5.07;3.05;;;5.20;99.90;;;;;;5053331;28;20086;-87
2023/01/18 01:09:10;;;;;;;4.22;3.42;;;5.40;99.90;;;;;;5053063;28;20029;-88
2023/01/18 01:11:35;;;;;;;6.72;4.30;;;5.50;99.90;;;;;;5038775;28;20067;-88
2023/01/18 01:27:41;;;;;;;6.78;3.80;;;5.10;99.90;;;;;;5056553;28;20449;-88
2023/01/18 01:30:07;;;;;;;4.43;3.33;;;5.10;99.90;;;;;;5056756;28;20053;-87
2023/01/18 01:32:33;;;;;;;4.57;3.20;;;5.30;99.90;;;;;;5055164;28;20085;-88
2023/01/18 01:34:59;;;;;;;4.50;3.10;;;5.30;99.90;;;;;;5038777;28;20115;-88
2023/01/18 01:37:24;;;;;;;4.90;3.55;;;5.00;99.90;;;;;;5056327;28;20067;-88
2023/01/18 01:39:50;;;;;;;3.25;2.65;;;5.00;99.90;;;;;;5056499;28;20516;-87
2023/01/18 01:42:16;;;;;;;4.78;2.70;;;5.10;99.90;;;;;;5055392;28;20123;-88
2023/01/18 01:44:44;;;;;;;6.47;3.20;;;5.10;99.90;;;;;;5056468;28;20096;-88
2023/01/18 01:47:37;;;;;;;5.05;4.03;;;5.10;99.90;;;;;;5038942;28;20111;-88
2023/01/18 01:50:13;;;;;;;7.57;5.20;;;5.10;99.90;;;;;;5054932;28;20025;-88
2023/01/18 01:52:42;;;;;;;6.40;4.40;;;5.00;99.90;;;;;;5055885;28;20037;-88
2023/01/18 01:55:20;;;;;;;6.97;4.68;;;5.10;99.90;;;;;;5055901;28;20401;-88
2023/01/18 01:58:03;;;;;;;6.72;4.20;;;4.80;99.90;;;;;;5055882;28;20039;-89
2023/01/18 02:00:29;;;;;;;5.80;4.18;;;4.70;99.90;;;;;;5055067;28;20543;-89
2023/01/18 02:03:11;;;;;;;7.30;5.43;;;4.80;99.90;;;;;;5036709;28;20052;-89
2023/01/18 02:05:46;;;;;;;7.57;5.70;;;4.80;99.90;;;;;;5055551;28;20025;-87
2023/01/18 02:08:21;;;;;;;10.60;5.75;;;4.80;99.90;;;;;;5056112;28;20025;-88
2023/01/18 02:10:47;;;;;;;8.90;6.97;;;4.70;99.90;;;;;;5056308;28;20040;-88
2023/01/18 02:13:14;;;;;;;12.57;8.30;;;4.80;99.90;;;;;;5038633;28;20031;-88
2023/01/18 02:15:57;;;;;;;11.90;7.80;;;4.70;99.90;;;;;;5040640;28;20021;-88
2023/01/18 02:18:22;;;;;;;8.63;5.82;;;4.70;99.90;;;;;;5057502;28;20033;-88
2023/01/18 02:21:15;;;;;;;7.57;4.78;;;4.70;99.90;;;;;;5075445;28;20085;-88
2023/01/18 02:23:59;;;;;;;7.65;5.43;;;4.80;99.90;;;;;;5075265;28;20043;-88
2023/01/18 02:26:56;;;;;;;7.97;5.60;;;5.00;99.90;;;;;;5075908;28;20027;-87
2023/01/18 02:29:49;;;;;;;6.05;4.25;;;5.00;99.90;;;;;;5075474;28;20040;-88
2023/01/18 02:32:21;;;;;;;15.45;9.52;;;5.00;99.90;;;;;;5057374;28;20027;-88
2023/01/18 02:34:49;;;;;;;9.20;6.45;;;4.90;99.90;;;;;;5075820;28;20031;-88
2023/01/18 02:37:35;;;;;;;5.18;3.53;;;4.80;99.90;;;;;;5057440;28;20143;-88
2023/01/18 02:40:18;;;;;;;4.82;3.58;;;4.80;99.90;;;;;;5075266;28;20078;-87
2023/01/18 02:48:35;;;;;;;18.33;9.57;;;4.70;99.90;;;;;;5074961;28;20044;-88
2023/01/18 02:51:01;;;;;;;11.25;6.47;;;4.60;99.90;;;;;;5057390;28;20081;-88
2023/01/18 02:53:27;;;;;;;9.07;5.65;;;5.10;99.90;;;;;;5072379;28;20029;-88
2023/01/18 02:56:02;;;;;;;7.03;5.10;;;4.50;99.90;;;;;;5054952;28;20017;-88
2023/01/18 02:58:36;;;;;;;9.02;4.65;;;4.50;99.90;;;;;;5054542;28;20060;-87
2023/01/18 03:01:21;;;;;;;7.18;5.13;;;4.40;99.90;;;;;;5054730;28;20036;-88
2023/01/18 03:03:49;;;;;;;20.63;12.45;;;4.40;99.90;;;;;;5054697;28;20048;-88
2023/01/18 03:06:16;;;;;;;17.75;11.05;;;4.30;99.90;;;;;;5054663;28;20504;-87
2023/01/18 03:08:46;;;;;;;12.70;8.60;;;4.10;99.90;;;;;;5054445;28;20481;-88
2023/01/18 03:11:38;;;;;;;7.65;5.22;;;4.20;99.90;;;;;;5054597;28;20025;-87
2023/01/18 03:14:26;;;;;;;6.43;4.40;;;4.10;99.90;;;;;;5049444;28;20114;-88
2023/01/18 03:17:10;;;;;;;10.27;6.30;;;4.20;99.90;;;;;;5054520;28;20480;-88
2023/01/18 03:20:06;;;;;;;7.90;5.50;;;4.00;99.90;;;;;;5054320;28;20041;-88
2023/01/18 03:25:28;;;;;;;4.53;3.25;;;4.00;99.90;;;;;;5053937;28;20056;-88
2023/01/18 03:33:44;;;;;;;5.60;4.38;;;4.60;99.90;;;;;;5054067;28;20044;-87
2023/01/18 03:36:24;;;;;;;3.53;3.08;;;4.00;99.90;;;;;;5054254;28;20039;-87
2023/01/18 03:38:56;;;;;;;3.47;2.78;;;4.10;99.90;;;;;;5035802;28;20068;-87
2023/01/18 03:41:26;;;;;;;3.55;2.60;;;4.10;99.90;;;;;;5053617;28;20031;-87
2023/01/18 03:43:56;;;;;;;3.13;2.22;;;4.10;99.90;;;;;;5053352;28;20029;-87
2023/01/18 03:46:24;;;;;;;3.15;2.42;;;4.10;99.90;;;;;;5053862;28;20472;-87
2023/01/18 03:48:50;;;;;;;5.57;2.60;;;4.00;99.90;;;;;;5053692;28;20051;-87
2023/01/18 03:51:41;;;;;;;3.17;2.50;;;4.00;99.90;;;;;;5053595;28;20481;-87
2023/01/18 03:54:32;;;;;;;2.65;2.10;;;3.90;99.90;;;;;;5053996;28;20166;-87
2023/01/18 03:57:07;;;;;;;3.25;2.20;;;3.90;99.90;;;;;;5035685;28;20060;-87
2023/01/18 03:59:36;;;;;;;2.00;1.70;;;4.00;99.90;;;;;;5051973;28;20041;-87
2023/01/18 04:02:05;;;;;;;1.98;1.77;;;3.90;99.90;;;;;;5053859;28;20101;-86
2023/01/18 04:04:30;;;;;;;2.20;1.58;;;4.00;99.90;;;;;;5035607;28;20558;-87
2023/01/18 04:06:56;;;;;;;3.50;1.70;;;4.00;99.90;;;;;;5052856;28;20051;-87
2023/01/18 04:09:23;;;;;;;1.38;1.10;;;4.00;99.90;;;;;;5053490;28;20029;-87
2023/01/18 04:11:49;;;;;;;1.67;1.20;;;4.00;99.90;;;;;;5053088;28;20497;-86
2023/01/18 04:14:14;;;;;;;3.20;1.08;;;4.00;99.90;;;;;;5053375;28;20078;-86
2023/01/18 04:16:40;;;;;;;1.10;1.00;;;3.90;99.90;;;;;;5052998;28;20108;-86
2023/01/18 04:19:07;;;;;;;1.80;1.20;;;3.90;99.90;;;;;;5053167;28;20515;-87
2023/01/18 04:21:33;;;;;;;1.33;1.00;;;4.00;99.90;;;;;;5053350;28;20428;-86
2023/01/18 04:23:59;;;;;;;1.25;1.13;;;4.00;99.90;;;;;;5053227;28;20039;-87
2023/01/18 04:26:24;;;;;;;1.40;1.17;;;4.00;99.90;;;;;;5052368;28;20111;-87
2023/01/18 04:28:50;;;;;;;1.25;0.98;;;3.90;99.90;;;;;;5035168;28;20029;-87
2023/01/18 04:31:16;;;;;;;1.67;1.20;;;4.00;99.90;;;;;;5053191;28;20013;-87
2023/01/18 04:33:41;;;;;;;1.00;0.90;;;4.00;99.90;;;;;;5053595;28;20035;-87
2023/01/18 04:36:07;;;;;;;1.00;0.90;;;3.90;99.90;;;;;;5053248;28;20100;-87
2023/01/18 04:38:34;;;;;;;1.15;1.00;;;4.00;99.90;;;;;;5053238;28;20037;-87
2023/01/18 04:41:04;;;;;;;1.88;0.82;;;4.00;99.90;;;;;;5053441;28;20025;-87
2023/01/18 04:43:30;;;;;;;1.98;0.90;;;4.10;99.90;;;;;;5051541;28;20069;-86
2023/01/18 04:45:56;;;;;;;1.50;1.00;;;4.20;99.90;;;;;;5054392;28;20020;-87
2023/01/18 04:48:23;;;;;;;1.55;1.00;;;4.70;99.90;;;;;;5056137;28;20501;-86
2023/01/18 04:50:49;;;;;;;1.65;1.00;;;4.40;99.90;;;;;;5038347;28;20112;-87
2023/01/18 04:53:16;;;;;;;1.13;1.00;;;4.60;99.90;;;;;;5055919;28;20120;-87
2023/01/18 04:55:42;;;;;;;1.45;1.00;;;5.10;99.90;;;;;;5056290;28;20047;-87
2023/01/18 04:58:09;;;;;;;1.65;1.13;;;4.60;99.90;;;;;;5055879;28;20085;-87
2023/01/18 05:00:38;;;;;;;1.13;1.02;;;4.50;99.90;;;;;;5056130;28;20025;-86
2023/01/18 05:03:08;;;;;;;1.58;1.40;;;4.60;99.90;;;;;;5055823;28;20435;-87
2023/01/18 05:05:33;;;;;;;1.30;1.15;;;4.60;99.90;;;;;;5055348;28;20031;-86
2023/01/18 05:07:59;;;;;;;1.15;1.05;;;4.60;99.90;;;;;;5054788;28;20037;-87
2023/01/18 05:10:25;;;;;;;1.58;1.00;;;5.00;99.90;;;;;;5071117;28;20055;-87
2023/01/18 05:12:50;;;;;;;1.52;1.30;;;4.70;99.90;;;;;;5054824;28;20035;-87
2023/01/18 05:15:17;;;;;;;1.75;1.10;;;4.70;99.90;;;;;;5054647;28;20117;-87
2023/01/18 05:17:43;;;;;;;1.15;1.00;;;4.80;99.90;;;;;;5055249;28;20029;-87
2023/01/18 05:20:10;;;;;;;1.92;1.30;;;4.80;99.90;;;;;;5054947;28;20463;-86
2023/01/18 05:22:36;;;;;;;1.98;1.20;;;4.80;99.90;;;;;;5056307;28;20033;-87
2023/01/18 05:25:03;;;;;;;1.92;1.35;;;4.80;99.90;;;;;;5054771;28;20087;-87
2023/01/18 05:27:29;;;;;;;2.15;1.10;;;4.80;99.90;;;;;;5054850;28;20031;-86
2023/01/18 05:29:54;;;;;;;1.90;1.70;;;4.80;99.90;;;;;;5054438;28;20029;-86
2023/01/18 05:32:20;;;;;;;1.58;1.30;;;4.80;99.90;;;;;;5054580;28;20048;-87
2023/01/18 05:34:46;;;;;;;2.15;1.35;;;4.80;99.90;;;;;;5055475;28;20025;-87
2023/01/18 05:37:11;;;;;;;2.47;1.30;;;4.80;99.90;;;;;;5054764;28;20025;-85
2023/01/18 05:39:37;;;;;;;1.60;1.27;;;4.70;99.90;;;;;;5055580;28;20072;-87
2023/01/18 05:42:04;;;;;;;2.95;1.20;;;4.80;99.90;;;;;;5055498;28;20025;-87
2023/01/18 05:44:30;;;;;;;1.48;1.20;;;4.70;99.90;;;;;;5055240;28;20552;-87
2023/01/18 05:46:56;;;;;;;1.85;1.30;;;4.70;99.90;;;;;;5055379;28;20052;-86
2023/01/18 05:49:22;;;;;;;2.50;1.70;;;4.60;99.90;;;;;;5055241;28;20025;-87
2023/01/18 05:51:47;;;;;;;1.48;1.30;;;4.70;99.90;;;;;;5055469;28;20036;-87
2023/01/18 05:54:13;;;;;;;1.77;1.48;;;4.70;99.90;;;;;;5053770;28;20025;-87
2023/01/18 05:56:38;;;;;;;2.67;1.60;;;4.80;99.90;;;;;;5036468;28;20128;-88
2023/01/18 05:59:04;;;;;;;3.13;2.10;;;4.80;99.90;;;;;;5037430;28;20127;-87
2023/01/18 06:01:30;;;;;;;2.08;1.75;;;4.90;99.90;;;;;;5055178;28;20362;-86
2023/01/18 06:03:56;;;;;;;1.98;1.33;;;5.40;99.90;;;;;;5055086;28;20032;-87
2023/01/18 06:06:21;;;;;;;2.35;1.30;;;5.00;99.90;;;;;;5054998;28;20021;-87
2023/01/18 06:08:47;;;;;;;2.42;1.45;;;5.00;99.90;;;;;;5054628;28;20025;-86
2023/01/18 06:11:13;;;;;;;1.90;1.27;;;5.20;99.90;;;;;;5055047;28;20029;-87
2023/01/18 06:13:38;;;;;;;2.83;2.13;;;5.00;99.90;;;;;;5055315;28;20029;-87
2023/01/18 06:16:04;;;;;;;1.90;1.30;;;5.00;99.90;;;;;;5043023;28;20025;-87
2023/01/18 06:18:31;;;;;;;1.38;1.02;;;5.00;99.90;;;;;;5057144;28;20071;-87
2023/01/18 06:20:59;;;;;;;1.58;1.25;;;5.20;99.90;;;;;;5056636;28;20052;-88
2023/01/18 06:23:25;;;;;;;2.40;1.38;;;5.00;99.90;;;;;;5074405;28;20381;-87
2023/01/18 06:25:50;;;;;;;1.42;1.23;;;5.00;99.90;;;;;;5057387;28;20032;-87
2023/01/18 06:28:18;;;;;;;2.03;1.10;;;5.00;99.90;;;;;;5056845;28;20111;-87
2023/01/18 06:30:46;;;;;;;2.47;1.65;;;5.10;99.90;;;;;;5074913;28;20035;-87
2023/01/18 06:33:15;;;;;;;2.20;1.27;;;5.10;99.90;;;;;;5074643;28;20469;-87
2023/01/18 06:35:42;;;;;;;2.90;1.58;;;5.20;99.90;;;;;;5057670;28;20028;-88
2023/01/18 06:38:08;;;;;;;3.45;1.70;;;5.20;99.90;;;;;;5073664;28;20043;-88
2023/01/18 06:40:34;;;;;;;3.25;1.63;;;5.20;99.90;;;;;;5056753;28;20020;-88
2023/01/18 06:43:00;;;;;;;2.42;1.77;;;5.20;99.90;;;;;;5057090;28;20024;-87
2023/01/18 06:45:28;;;;;;;2.42;1.88;;;5.10;99.90;;;;;;5074301;28;20055;-88
2023/01/18 06:47:54;;;;;;;1.98;1.70;;;5.10;99.90;;;;;;5074712;28;20021;-88
2023/01/18 06:50:20;;;;;;;2.40;1.73;;;5.10;99.90;;;;;;5074840;28;20037;-87
2023/01/18 06:52:45;;;;;;;5.53;4.45;;;5.00;99.90;;;;;;5074466;28;20108;-88
2023/01/18 06:55:12;;;;;;;6.53;4.13;;;5.00;99.90;;;;;;5039717;28;20064;-87
2023/01/18 06:57:40;;;;;;;6.05;4.60;;;5.70;99.90;;;;;;5054199;28;20401;-87
2023/01/18 07:00:07;;;;;;;4.45;3.35;;;5.10;99.90;;;;;;5036697;28;20029;-86
2023/01/18 07:02:34;;;;;;;5.35;3.58;;;5.10;99.90;;;;;;5054271;28;20049;-87
2023/01/18 07:05:04;;;;;;;3.38;2.25;;;5.10;99.90;;;;;;5053304;28;20459;-87
2023/01/18 07:07:30;;;;;;;3.42;2.25;;;5.20;99.90;;;;;;5035591;28;20029;-88
2023/01/18 07:09:55;;;;;;;3.20;2.85;;;5.20;99.90;;;;;;5054327;28;20025;-88
2023/01/18 07:12:21;;;;;;;4.25;3.05;;;5.10;99.90;;;;;;5036798;28;20058;-88
2023/01/18 07:14:47;;;;;;;12.70;9.27;;;5.10;99.90;;;;;;5036601;28;20393;-87
2023/01/18 07:17:13;;;;;;;7.57;4.80;;;5.10;99.90;;;;;;5035807;28;20040;-88
2023/01/18 07:19:39;;;;;;;7.05;4.28;;;5.50;99.90;;;;;;5053893;28;20160;-88
2023/01/18 07:22:05;;;;;;;14.10;9.68;;;5.20;99.90;;;;;;5053577;28;20048;-88
2023/01/18 07:24:30;;;;;;;18.40;11.98;;;5.30;99.90;;;;;;5053678;28;20099;-88
2023/01/18 07:26:59;;;;;;;7.13;4.80;;;5.20;99.90;;;;;;5052825;28;20025;-88
2023/01/18 07:29:26;;;;;;;24.30;14.93;;;5.40;99.90;;;;;;5053636;28;20107;-88
2023/01/18 07:31:52;;;;;;;33.45;19.13;;;5.30;99.90;;;;;;5053680;28;20025;-87
2023/01/18 07:34:18;;;;;;;22.80;12.27;;;5.40;99.90;;;;;;5053325;28;20523;-88
2023/01/18 07:36:43;;;;;;;17.27;10.38;;;5.30;99.90;;;;;;5052549;28;20075;-87
2023/01/18 07:39:09;;;;;;;12.13;6.53;;;5.20;99.90;;;;;;5052618;28;20037;-88
2023/01/18 07:41:36;;;;;;;8.80;5.35;;;5.10;99.90;;;;;;5053523;28;20025;-87
2023/01/18 07:44:02;;;;;;;7.43;5.32;;;5.10;99.90;;;;;;5053670;28;20496;-88
2023/01/18 07:46:28;;;;;;;8.07;4.50;;;5.10;99.90;;;;;;5053867;28;20549;-87
2023/01/18 07:48:53;;;;;;;8.68;3.80;;;5.00;99.90;;;;;;5035930;28;20067;-88
2023/01/18 07:51:23;;;;;;;7.68;3.63;;;5.00;99.90;;;;;;5053374;28;20033;-88
2023/01/18 07:53:54;;;;;;;6.82;3.95;;;5.00;99.90;;;;;;5052259;28;20025;-87
2023/01/18 07:56:21;;;;;;;7.63;4.00;;;4.90;99.90;;;;;;5053410;28;20441;-88
2023/01/18 07:58:47;;;;;;;6.72;3.85;;;4.80;99.90;;;;;;5053320;28;20490;-86
2023/01/18 08:01:16;;;;;;;5.57;3.28;;;5.20;99.90;;;;;;5053389;28;20021;-88
2023/01/18 08:03:42;;;;;;;6.07;4.18;;;5.00;99.90;;;;;;5053812;28;20507;-88
2023/01/18 08:06:11;;;;;;;7.43;4.35;;;5.00;99.90;;;;;;5053145;28;20132;-88
2023/01/18 08:08:37;;;;;;;8.88;4.30;;;5.10;99.90;;;;;;5052980;28;20021;-87
2023/01/18 08:11:05;;;;;;;6.88;4.70;;;5.10;99.90;;;;;;5035451;28;20021;-88
2023/01/18 08:13:31;;;;;;;10.00;5.57;;;5.20;99.90;;;;;;5035630;28;20473;-87
2023/01/18 08:16:00;;;;;;;8.13;4.80;;;5.20;99.90;;;;;;5035354;28;20025;-88
2023/01/18 08:18:26;;;;;;;5.78;4.35;;;5.30;99.90;;;;;;5052750;28;20036;-88
2023/01/18 08:20:51;;;;;;;8.18;4.25;;;5.60;99.90;;;;;;5055329;28;20464;-87
2023/01/18 08:23:17;;;;;;;5.65;3.65;;;5.30;99.90;;;;;;5057206;28;20031;-88
2023/01/18 08:25:43;;;;;;;6.00;4.28;;;5.30;99.90;;;;;;5057566;28;20128;-88
2023/01/18 08:28:10;;;;;;;6.22;3.40;;;5.30;99.90;;;;;;5057184;28;20063;-88
2023/01/18 08:30:38;;;;;;;4.18;3.13;;;5.40;99.90;;;;;;5057144;28;20053;-88
2023/01/18 08:33:05;;;;;;;5.18;3.85;;;5.40;99.90;;;;;;5056924;28;20036;-87
2023/01/18 08:35:33;;;;;;;4.45;3.45;;;5.40;99.90;;;;;;5055865;28;20405;-87
2023/01/18 08:38:00;;;;;;;6.45;4.68;;;5.50;99.90;;;;;;5057081;28;21945;-87
2023/01/18 08:40:26;;;;;;;9.23;5.60;;;5.50;99.90;;;;;;5056851;28;20025;-88
2023/01/18 08:42:59;;;;;;;18.58;10.35;;;5.50;99.90;;;;;;5057200;28;20040;-88
2023/01/18 08:45:26;;;;;;;38.20;22.80;;;5.40;99.90;;;;;;5056895;28;20029;-88
2023/01/18 08:47:59;;;;;;;23.67;14.55;;;5.40;99.90;;;;;;5056326;28;20022;-89
2023/01/18 08:50:26;;;;;;;37.25;20.50;;;5.50;99.90;;;;;;5056748;28;20527;-89
2023/01/18 08:52:52;;;;;;;14.95;9.00;;;5.70;99.90;;;;;;5056362;28;20025;-88
2023/01/18 08:55:19;;;;;;;22.15;11.98;;;5.70;99.90;;;;;;5056897;28;20028;-89
2023/01/18 08:57:45;;;;;;;9.30;6.32;;;5.60;99.90;;;;;;5056681;28;20021;-89
2023/01/18 09:00:11;;;;;;;16.83;9.45;;;5.70;99.90;;;;;;5056575;28;20040;-89
2023/01/18 09:02:38;;;;;;;6.60;4.90;;;5.70;99.90;;;;;;5056267;28;20029;-89
2023/01/18 09:05:04;;;;;;;6.93;4.25;;;5.80;99.90;;;;;;5056367;28;20021;-89
2023/01/18 09:07:30;;;;;;;17.88;11.30;;;5.80;99.90;;;;;;5038598;28;20059;-89
2023/01/18 09:09:55;;;;;;;23.75;16.02;;;5.70;99.90;;;;;;5056453;28;20028;-89
2023/01/18 09:12:21;;;;;;;11.93;5.85;;;6.00;99.90;;;;;;5038317;28;20025;-89
2023/01/18 09:14:47;;;;;;;11.48;6.88;;;5.70;99.90;;;;;;5038384;28;20036;-88
2023/01/18 09:17:13;;;;;;;13.50;6.57;;;5.80;99.90;;;;;;5038947;28;20458;-89
2023/01/18 09:19:39;;;;;;;7.30;5.05;;;6.00;99.90;;;;;;5055361;28;20090;-89
2023/01/18 09:22:05;;;;;;;10.18;5.78;;;5.80;99.90;;;;;;5056439;28;20024;-88
2023/01/18 09:24:31;;;;;;;13.00;8.27;;;5.80;99.90;;;;;;5055602;28;20052;-89
2023/01/18 09:26:58;;;;;;;19.45;10.52;;;5.90;99.90;;;;;;5055965;28;20021;-89
2023/01/18 09:29:24;;;;;;;18.45;10.80;;;5.60;99.90;;;;;;5055888;28;20028;-89
2023/01/18 09:31:52;;;;;;;15.73;9.65;;;5.60;99.90;;;;;;5037908;28;20039;-89
2023/01/18 09:34:18;;;;;;;9.98;6.53;;;5.60;99.90;;;;;;5055870;28;20036;-88
2023/01/18 09:36:44;;;;;;;9.55;6.20;;;5.90;99.90;;;;;;5056156;28;20025;-89
2023/01/18 09:39:09;;;;;;;7.38;4.60;;;5.90;99.90;;;;;;5056093;28;20119;-89
2023/01/18 09:41:38;;;;;;;5.90;4.40;;;6.30;99.90;;;;;;5055705;28;20100;-89
2023/01/18 09:44:17;;;;;;;7.00;4.70;;;6.40;99.90;;;;;;5055663;28;20519;-89
2023/01/18 09:46:43;;;;;;;7.95;4.68;;;6.30;99.90;;;;;;5054564;28;20029;-88
2023/01/18 09:49:20;;;;;;;11.27;8.63;;;6.00;99.90;;;;;;5055988;28;20098;-88
2023/01/18 09:51:56;;;;;;;7.20;5.25;;;5.90;99.90;;;;;;5055683;28;20021;-89
2023/01/18 09:54:40;;;;;;;7.93;5.30;;;5.50;99.90;;;;;;5055441;28;20036;-89
2023/01/18 09:57:17;;;;;;;5.95;4.88;;;5.60;99.90;;;;;;5037660;28;20017;-89
2023/01/18 09:59:58;;;;;;;5.13;4.03;;;5.20;99.90;;;;;;5054384;28;20040;-89
2023/01/18 10:02:31;;;;;;;6.38;5.25;;;5.00;99.90;;;;;;5037424;28;20021;-89
2023/01/18 10:05:14;;;;;;;4.18;2.83;;;4.90;99.90;;;;;;5055173;28;20032;-89
2023/01/18 10:08:01;;;;;;;2.53;2.17;;;4.70;99.90;;;;;;5055048;28;20033;-89
2023/01/18 10:10:38;;;;;;;2.00;1.75;;;4.70;99.90;;;;;;5056140;28;20053;-89
2023/01/18 10:13:40;;;;;;;2.17;1.55;;;4.80;99.90;;;;;;5053965;28;20102;-86
2023/01/18 10:16:13;;;;;;;0.85;0.82;;;4.40;99.90;;;;;;5053266;28;20029;-86
2023/01/18 10:18:44;;;;;;;2.10;0.90;;;4.30;99.90;;;;;;5054134;28;20040;-86
2023/01/18 10:21:46;;;;;;;1.58;1.30;;;4.00;99.90;;;;;;5053840;28;20680;-86
2023/01/18 10:24:23;;;;;;;2.65;1.70;;;3.90;99.90;;;;;;5033585;28;20068;-86
2023/01/18 10:26:52;;;;;;;3.53;1.42;;;4.20;99.90;;;;;;5053710;28;20027;-86
2023/01/18 10:29:32;;;;;;;5.47;2.50;;;3.80;99.90;;;;;;5053435;28;20029;-86
2023/01/18 10:32:00;;;;;;;3.28;2.13;;;3.80;99.90;;;;;;5053927;28;20036;-86
2023/01/18 10:34:40;;;;;;;3.22;1.95;;;3.50;99.90;;;;;;5053648;28;20029;-85
2023/01/18 10:37:27;;;;;;;7.38;3.05;;;3.50;99.90;;;;;;5053537;28;20051;-86
2023/01/18 10:39:58;;;;;;;5.60;3.45;;;3.50;99.90;;;;;;5053484;28;20037;-86
2023/01/18 10:42:43;;;;;;;12.80;7.07;;;3.60;99.90;;;;;;5052720;28;20024;-86
2023/01/18 10:45:25;;;;;;;3.90;2.83;;;3.30;99.90;;;;;;5051792;28;20405;-86
2023/01/18 10:47:53;;;;;;;18.58;13.75;;;3.40;99.90;;;;;;5053657;28;20541;-86
2023/01/18 10:50:19;;;;;;;5.68;3.38;;;3.50;99.90;;;;;;5053273;28;20032;-86
2023/01/18 10:52:44;;;;;;;13.88;9.07;;;3.90;99.90;;;;;;5053127;28;20029;-86
2023/01/18 10:55:16;;;;;;;8.40;4.38;;;3.60;99.90;;;;;;5053149;28;20098;-86
2023/01/18 10:57:50;;;;;;;6.13;4.43;;;3.50;99.90;;;;;;5053065;28;20029;-86
2023/01/18 11:00:32;;;;;;;10.38;5.97;;;3.30;99.90;;;;;;5048726;28;20052;-86
2023/01/18 11:03:01;;;;;;;27.45;18.55;;;3.70;99.90;;;;;;5052881;28;20488;-84
2023/01/18 11:05:39;;;;;;;7.43;4.20;;;3.90;99.90;;;;;;5053004;28;20261;-85
2023/01/18 11:08:31;;;;;;;11.90;7.20;;;3.80;99.90;;;;;;5035440;28;20025;-85
2023/01/18 11:11:23;;;;;;;15.38;7.63;;;3.90;99.90;;;;;;5052894;28;20032;-85
2023/01/18 11:13:49;;;;;;;25.90;19.17;;;3.90;99.90;;;;;;5052580;28;20389;-85
2023/01/18 11:16:17;;;;;;;11.02;8.52;;;3.90;99.90;;;;;;5052517;28;20021;-85
2023/01/18 11:18:58;;;;;;;7.00;6.28;;;3.80;99.90;;;;;;5052537;28;20051;-85
2023/01/18 11:21:29;;;;;;;21.25;16.02;;;3.80;99.90;;;;;;5052689;28;20028;-84
2023/01/18 11:23:55;;;;;;;6.63;5.78;;;3.70;99.90;;;;;;5052482;28;20127;-85
2023/01/18 11:26:22;;;;;;;5.63;5.00;;;3.90;99.90;;;;;;5052673;28;20112;-85
2023/01/18 11:29:03;;;;;;;66.07;47.22;;;3.60;99.90;;;;;;5052565;28;20024;-85
2023/01/18 11:31:44;;;;;;;50.50;45.15;;;3.70;99.90;;;;;;5052354;28;20029;-85
2023/01/18 11:34:29;;;;;;;9.27;8.15;;;3.80;99.90;;;;;;5052487;28;20357;-85
2023/01/18 11:36:56;;;;;;;4.90;4.40;;;3.50;99.90;;;;;;5052345;28;20082;-85
2023/01/18 11:39:25;;;;;;;9.43;8.52;;;3.40;99.90;;;;;;5052376;28;20028;-85
2023/01/18 11:42:08;;;;;;;5.75;5.18;;;3.60;99.90;;;;;;5052107;28;20537;-85
2023/01/18 11:44:37;;;;;;;7.80;7.00;;;3.80;99.90;;;;;;5052289;28;20025;-85
2023/01/18 11:47:11;;;;;;;7.78;5.53;;;3.60;99.90;;;;;;5052499;28;20025;-85
2023/01/18 11:49:55;;;;;;;6.60;5.88;;;3.60;99.90;;;;;;5052262;28;20044;-85
2023/01/18 11:52:41;;;;;;;5.63;5.00;;;3.60;99.90;;;;;;5052463;28;20456;-85
2023/01/18 11:55:20;;;;;;;6.38;4.30;;;3.70;99.90;;;;;;5052035;28;20496;-85
2023/01/18 11:57:45;;;;;;;5.57;4.50;;;3.70;99.90;;;;;;5051973;28;20037;-85
2023/01/18 12:00:15;;;;;;;5.70;4.63;;;3.80;99.90;;;;;;5051829;28;20048;-85
2023/01/18 12:03:12;;;;;;;8.10;5.43;;;3.80;99.90;;;;;;5034369;28;20021;-85
2023/01/18 12:05:53;;;;;;;4.40;3.70;;;4.00;99.90;;;;;;5052049;28;20064;-85
2023/01/18 12:08:38;;;;;;;10.85;7.15;;;3.70;99.90;;;;;;5051939;28;20025;-85
2023/01/18 12:11:22;;;;;;;6.40;5.40;;;4.20;99.90;;;;;;5052092;28;20056;-85
2023/01/18 12:14:12;;;;;;;7.03;5.32;;;4.30;99.90;;;;;;5052133;28;20025;-85
2023/01/18 12:17:23;;;;;;;5.90;4.35;;;4.20;99.90;;;;;;5051816;28;20056;-85
2023/01/18 12:19:55;;;;;;;4.75;3.92;;;4.10;99.90;;;;;;4951785;29;20043;-84
2023/01/18 12:22:38;;;;;;;7.75;4.57;;;4.20;99.90;;;;;;4951740;29;20106;-85
2023/01/18 12:25:20;;;;;;;7.50;5.18;;;4.20;99.90;;;;;;4951633;29;20527;-85
2023/01/18 12:28:14;;;;;;;7.70;5.88;;;4.20;99.90;;;;;;4951646;29;20035;-85
2023/01/18 12:31:09;;;;;;;5.60;4.20;;;4.20;99.90;;;;;;4913837;29;20083;-85
2023/01/18 12:33:56;;;;;;;5.90;4.38;;;4.10;99.90;;;;;;4875815;29;20041;-85
2023/01/18 12:36:48;;;;;;;4.43;3.63;;;3.80;99.90;;;;;;4875963;29;20037;-85
2023/01/18 12:39:34;;;;;;;4.25;3.85;;;3.80;99.90;;;;;;4875960;29;20053;-84
2023/01/18 12:42:25;;;;;;;5.90;4.00;;;3.70;99.90;;;;;;4876015;29;20496;-85
2023/01/18 12:45:01;;;;;;;5.95;3.60;;;3.60;99.90;;;;;;4875843;29;20533;-85
2023/01/18 12:47:33;;;;;;;4.88;3.97;;;3.30;99.90;;;;;;4876145;29;20045;-85
2023/01/18 12:50:05;;;;;;;5.28;4.00;;;3.20;99.90;;;;;;4875935;29;20084;-85
2023/01/18 12:52:38;;;;;;;8.43;5.70;;;3.40;99.90;;;;;;4878109;29;20140;-85
2023/01/18 12:55:06;;;;;;;7.60;5.18;;;3.50;99.90;;;;;;4916891;29;20120;-85
2023/01/18 12:57:32;;;;;;;5.15;4.18;;;3.30;99.90;;;;;;4913124;29;20493;-85
2023/01/18 13:00:06;;;;;;;6.18;4.85;;;3.70;99.90;;;;;;4913318;29;20040;-85
2023/01/18 13:02:46;;;;;;;5.68;3.92;;;3.70;99.90;;;;;;4913427;29;20028;-85
2023/01/18 13:05:21;;;;;;;7.72;4.78;;;4.00;99.90;;;;;;4913352;29;20111;-85
2023/01/18 13:08:13;;;;;;;6.20;4.22;;;3.60;99.90;;;;;;4954120;28;20404;-85
2023/01/18 13:10:40;;;;;;;6.13;4.50;;;3.90;99.90;;;;;;5016271;28;20040;-84
2023/01/18 13:13:06;;;;;;;6.10;5.03;;;3.90;99.90;;;;;;5055432;28;20370;-85
2023/01/18 13:15:48;;;;;;;7.65;6.03;;;4.10;99.90;;;;;;5054977;28;20060;-85
2023/01/18 13:18:47;;;;;;;7.90;4.85;;;4.30;99.90;;;;;;5054950;28;20032;-85
2023/01/18 13:21:19;;;;;;;6.50;4.97;;;4.40;99.90;;;;;;5054305;28;20064;-85
2023/01/18 13:23:47;;;;;;;7.63;5.13;;;4.40;99.90;;;;;;5054802;28;20048;-85
2023/01/18 13:26:30;;;;;;;8.75;5.65;;;4.30;99.90;;;;;;5054823;28;20419;-84
2023/01/18 13:29:11;;;;;;;8.38;5.68;;;4.40;99.90;;;;;;5054813;28;20024;-85
2023/01/18 13:31:37;;;;;;;6.85;5.43;;;4.40;99.90;;;;;;5054840;28;20032;-85
2023/01/18 13:34:03;;;;;;;6.90;6.18;;;4.50;99.90;;;;;;5054813;28;20032;-85
2023/01/18 13:36:43;;;;;;;5.72;4.60;;;4.40;99.90;;;;;;5054615;28;20025;-85
2023/01/18 13:39:14;;;;;;;5.90;4.55;;;4.10;99.90;;;;;;5054255;28;20037;-85
2023/01/18 13:42:02;;;;;;;9.25;4.60;;;4.20;99.90;;;;;;5054411;28;20033;-85
2023/01/18 13:44:38;;;;;;;6.13;4.95;;;3.90;99.90;;;;;;5054693;28;20025;-85
2023/01/18 13:47:38;;;;;;;7.38;4.85;;;3.90;99.90;;;;;;5054883;28;20021;-85